createdAt,value
2023-01-09T00:00:34.064Z,49.38
2023-01-09T00:03:03.109Z,49.18
2023-01-09T00:05:30.737Z,49.34
2023-01-09T00:07:58.359Z,49.31
2023-01-09T00:10:25.937Z,49.47
2023-01-09T00:12:53.583Z,49.37
2023-01-09T00:15:21.248Z,49.26
2023-01-09T00:17:49.956Z,49.30
2023-01-09T00:20:19.024Z,49.33
2023-01-09T00:22:46.696Z,49.36
2023-01-09T00:25:14.297Z,49.39
2023-01-09T00:27:41.859Z,49.44
2023-01-09T00:30:10.285Z,49.39
2023-01-09T00:32:38.090Z,49.38
2023-01-09T00:35:06.119Z,49.36
2023-01-09T00:37:35.137Z,49.32
2023-01-09T00:40:02.897Z,49.33
2023-01-09T00:42:31.641Z,49.41
2023-01-09T00:45:00.128Z,49.35
2023-01-09T00:47:28.136Z,49.29
2023-01-09T00:49:59.403Z,49.29
2023-01-09T00:52:28.562Z,49.34
2023-01-09T00:54:58.010Z,49.37
2023-01-09T00:57:25.676Z,49.17
2023-01-09T00:59:53.297Z,49.30
2023-01-09T01:05:21.704Z,49.38
2023-01-09T01:07:49.373Z,49.33
2023-01-09T01:10:20.165Z,49.40
2023-01-09T01:12:47.833Z,49.26
2023-01-09T01:47:26.122Z,49.26
2023-01-09T01:49:53.762Z,49.24
2023-01-09T01:52:21.388Z,49.22
2023-01-09T01:54:49.005Z,49.27
2023-01-09T01:57:16.664Z,49.33
2023-01-09T01:59:50.004Z,49.28
2023-01-09T02:02:17.756Z,49.44
2023-01-09T02:04:46.841Z,49.36
2023-01-09T02:07:14.379Z,49.24
2023-01-09T02:09:41.988Z,49.32
2023-01-09T02:12:16.469Z,49.26
2023-01-09T02:14:44.102Z,49.21
2023-01-09T02:17:14.146Z,49.25
2023-01-09T02:19:55.324Z,49.33
2023-01-09T02:22:26.910Z,49.25
2023-01-09T02:24:59.843Z,49.21
2023-01-09T02:27:40.889Z,49.33
2023-01-09T02:30:27.468Z,49.09
2023-01-09T02:33:04.251Z,49.02
2023-01-09T02:35:35.008Z,49.22
2023-01-09T02:38:04.892Z,49.01
2023-01-09T02:40:34.044Z,49.13
2023-01-09T02:43:01.649Z,49.11
2023-01-09T02:45:29.245Z,49.16
2023-01-09T02:47:56.922Z,49.09
2023-01-09T02:50:28.172Z,49.09
2023-01-09T02:53:01.358Z,49.00
2023-01-09T02:55:32.187Z,49.03
2023-01-09T02:58:04.801Z,49.05
2023-01-09T03:00:35.627Z,49.15
2023-01-09T03:03:05.611Z,49.07
2023-01-09T03:05:36.657Z,49.10
2023-01-09T03:08:04.786Z,49.08
2023-01-09T03:10:34.261Z,49.03
2023-01-09T03:13:01.860Z,49.07
2023-01-09T03:47:38.952Z,49.05
2023-01-09T03:50:07.080Z,48.91
2023-01-09T03:52:36.088Z,49.10
2023-01-09T03:55:03.752Z,48.98
2023-01-09T03:57:31.325Z,48.94
2023-01-09T03:59:58.935Z,48.94
2023-01-09T04:02:26.550Z,49.13
2023-01-09T04:04:55.554Z,49.01
2023-01-09T04:07:23.313Z,49.02
2023-01-09T04:09:51.004Z,48.90
2023-01-09T04:12:18.698Z,48.91
2023-01-09T04:14:46.288Z,48.89
2023-01-09T04:46:34.495Z,48.96
2023-01-09T04:49:02.117Z,48.96
2023-01-09T04:51:29.737Z,48.94
2023-01-09T04:53:57.348Z,49.05
2023-01-09T04:56:24.973Z,48.93
2023-01-09T04:58:52.633Z,49.01
2023-01-09T05:01:20.364Z,49.07
2023-01-09T05:03:49.434Z,48.85
2023-01-09T05:06:17.017Z,48.89
2023-01-09T05:08:44.589Z,48.79
2023-01-09T05:11:12.238Z,48.75
2023-01-09T05:13:39.829Z,48.72
2023-01-09T05:30:41.509Z,48.72
2023-01-09T05:33:09.137Z,48.52
2023-01-09T05:35:36.786Z,48.57
2023-01-09T05:38:04.378Z,48.70
2023-01-09T05:40:39.554Z,48.64
2023-01-09T05:43:07.689Z,48.60
2023-01-09T05:45:35.365Z,48.73
2023-01-09T05:48:04.509Z,48.82
2023-01-09T05:50:32.147Z,48.79
2023-01-09T05:52:59.774Z,48.91
2023-01-09T05:55:27.356Z,48.85
2023-01-09T05:57:54.961Z,48.85
2023-01-09T06:00:22.872Z,48.93
2023-01-09T06:02:50.606Z,48.83
2023-01-09T06:05:19.724Z,48.75
2023-01-09T06:07:47.370Z,48.80
2023-01-09T06:10:15.490Z,48.88
2023-01-09T06:12:44.809Z,48.93
2023-01-09T06:15:12.670Z,48.78
2023-01-09T06:17:40.228Z,48.95
2023-01-09T06:20:08.195Z,49.00
2023-01-09T06:22:37.157Z,48.83
2023-01-09T06:25:04.918Z,48.87
2023-01-09T06:27:32.522Z,48.98
2023-01-09T06:30:00.153Z,48.84
2023-01-09T06:32:27.753Z,49.03
2023-01-09T06:34:55.371Z,48.88
2023-01-09T06:37:23.071Z,48.85
2023-01-09T06:39:54.056Z,48.91
2023-01-09T06:42:22.136Z,48.82
2023-01-09T06:44:49.677Z,48.92
2023-01-09T06:47:17.267Z,48.87
2023-01-09T06:49:44.853Z,48.92
2023-01-09T06:52:12.461Z,48.85
2023-01-09T06:54:40.037Z,49.10
2023-01-09T06:57:09.023Z,48.93
2023-01-09T06:59:37.002Z,48.90
2023-01-09T07:02:04.773Z,48.95
2023-01-09T07:04:32.353Z,49.08
2023-01-09T07:06:59.947Z,48.87
2023-01-09T07:09:27.626Z,48.92
2023-01-09T07:11:55.233Z,48.92
2023-01-09T07:14:24.140Z,48.86
2023-01-09T07:16:51.753Z,49.00
2023-01-09T07:19:19.399Z,48.90
2023-01-09T07:21:47.048Z,49.05
2023-01-09T07:24:14.624Z,48.97
2023-01-09T07:26:43.335Z,48.84
2023-01-09T07:29:11.080Z,48.95
2023-01-09T07:31:40.112Z,48.88
2023-01-09T07:34:07.733Z,48.79
2023-01-09T07:36:35.352Z,49.01
2023-01-09T07:39:03.027Z,49.06
2023-01-09T07:41:30.676Z,48.89
2023-01-09T07:43:58.269Z,48.84
2023-01-09T07:46:25.903Z,48.98
2023-01-09T07:48:55.045Z,48.87
2023-01-09T07:51:22.783Z,48.83
2023-01-09T07:53:50.340Z,48.97
2023-01-09T07:56:17.915Z,48.94
2023-01-09T07:58:45.533Z,48.90
2023-01-09T08:46:56.144Z,49.09
2023-01-09T08:49:23.731Z,48.92
2023-01-09T08:51:51.527Z,48.95
2023-01-09T08:54:19.511Z,48.96
2023-01-09T08:56:47.341Z,48.96
2023-01-09T08:59:15.545Z,48.95
2023-01-09T09:45:47.661Z,48.93
2023-01-09T09:48:22.234Z,48.91
2023-01-09T09:50:59.549Z,48.93
2023-01-09T09:53:27.673Z,48.92
2023-01-09T09:55:55.238Z,48.87
2023-01-09T09:58:26.038Z,48.95
2023-01-09T10:30:30.768Z,49.16
2023-01-09T10:33:02.380Z,49.02
2023-01-09T10:35:47.988Z,48.98
2023-01-09T10:38:16.577Z,48.97
2023-01-09T10:40:45.193Z,48.91
2023-01-09T10:43:13.834Z,48.96
2023-01-09T10:45:41.687Z,49.00
2023-01-09T10:48:20.616Z,48.98
2023-01-09T10:50:48.955Z,48.99
2023-01-09T10:53:17.654Z,49.06
2023-01-09T10:55:48.025Z,49.13
2023-01-09T10:58:17.528Z,49.06
2023-01-09T11:00:45.138Z,48.97
2023-01-09T11:03:14.677Z,48.94
2023-01-09T11:05:42.480Z,48.78
2023-01-09T11:08:12.660Z,48.87
2023-01-09T11:10:47.585Z,48.92
2023-01-09T11:13:15.697Z,48.84
2023-01-09T11:15:43.259Z,49.01
2023-01-09T11:18:24.493Z,48.89
2023-01-09T11:20:52.191Z,48.98
2023-01-09T11:23:29.748Z,48.98
2023-01-09T11:25:57.916Z,48.89
2023-01-09T11:28:25.658Z,49.02
2023-01-09T11:30:54.340Z,48.81
2023-01-09T11:33:24.601Z,48.92
2023-01-09T11:36:10.919Z,48.96
2023-01-09T11:38:48.854Z,48.98
2023-01-09T11:41:18.170Z,48.77
2023-01-09T11:43:45.869Z,48.76
2023-01-09T11:46:30.464Z,48.72
2023-01-09T11:48:59.946Z,48.72
2023-01-09T11:51:28.084Z,48.72
2023-01-09T11:54:22.662Z,48.52
2023-01-09T11:56:50.435Z,48.62
2023-01-09T11:59:18.424Z,48.55
2023-01-09T12:02:01.135Z,48.50
2023-01-09T12:04:31.299Z,48.55
2023-01-09T12:07:06.110Z,48.57
2023-01-09T12:09:36.340Z,48.48
2023-01-09T12:12:05.492Z,48.60
2023-01-09T12:14:38.625Z,48.44
2023-01-09T12:17:13.602Z,48.62
2023-01-09T12:19:49.281Z,48.58
2023-01-09T12:22:17.869Z,48.64
2023-01-09T12:24:53.208Z,48.78
2023-01-09T12:27:25.424Z,48.85
2023-01-09T12:29:55.999Z,48.63
2023-01-09T12:32:30.423Z,48.47
2023-01-09T12:35:03.081Z,48.27
2023-01-09T12:37:44.595Z,48.31
2023-01-09T12:40:15.007Z,48.47
2023-01-09T12:42:44.614Z,48.39
2023-01-09T12:45:18.633Z,48.43
2023-01-09T12:47:46.649Z,48.48
2023-01-09T12:50:33.064Z,48.55
2023-01-09T12:53:06.290Z,48.45
2023-01-09T12:55:34.471Z,48.50
2023-01-09T12:58:02.728Z,48.59
2023-01-09T13:00:31.693Z,48.58
2023-01-09T13:03:11.229Z,48.44
2023-01-09T13:05:41.476Z,48.43
2023-01-09T13:08:12.984Z,48.43
2023-01-09T13:10:42.098Z,48.32
2023-01-09T13:13:12.153Z,48.46
2023-01-09T13:15:40.684Z,48.58
2023-01-09T13:18:08.893Z,48.54
2023-01-09T13:20:37.697Z,48.55
2023-01-09T13:23:05.382Z,48.55
2023-01-09T13:25:36.293Z,48.45
2023-01-09T13:28:05.476Z,48.26
2023-01-09T13:30:47.946Z,48.29
2023-01-09T13:33:19.088Z,48.15
2023-01-09T13:35:57.157Z,48.11
2023-01-09T13:38:25.588Z,48.08
2023-01-09T13:41:24.845Z,48.09
2023-01-09T13:43:55.915Z,48.02
2023-01-09T13:46:23.511Z,48.17
2023-01-09T13:48:51.151Z,48.07
2023-01-09T13:51:37.961Z,48.09
2023-01-09T13:54:05.613Z,48.01
2023-01-09T13:56:34.645Z,48.21
2023-01-09T13:59:03.211Z,48.45
2023-01-09T14:01:47.511Z,48.46
2023-01-09T14:04:36.009Z,48.44
2023-01-09T14:07:14.698Z,48.60
2023-01-09T14:09:44.751Z,48.68
2023-01-09T14:12:13.901Z,48.65
2023-01-09T14:14:43.437Z,48.67
2023-01-09T14:17:16.235Z,48.74
2023-01-09T14:19:44.104Z,48.78
2023-01-09T14:22:22.029Z,48.80
2023-01-09T14:24:52.545Z,48.73
2023-01-09T14:27:38.727Z,48.66
2023-01-09T14:30:29.749Z,48.81
2023-01-09T14:32:57.908Z,48.89
2023-01-09T14:35:27.100Z,48.66
2023-01-09T14:38:01.178Z,48.62
2023-01-09T14:40:28.856Z,48.66
2023-01-09T14:42:56.465Z,48.62
2023-01-09T14:45:24.428Z,48.67
2023-01-09T14:47:54.582Z,48.83
2023-01-09T14:50:23.472Z,48.67
2023-01-09T14:52:52.000Z,48.70
2023-01-09T14:55:21.888Z,48.72
2023-01-09T14:57:52.205Z,48.71
2023-01-09T15:00:20.031Z,48.62
2023-01-09T15:02:47.782Z,48.59
2023-01-09T15:05:18.106Z,48.64
2023-01-09T15:07:46.417Z,48.66
2023-01-09T15:10:16.299Z,48.62
2023-01-09T15:12:49.023Z,48.63
2023-01-09T15:15:16.623Z,48.64
2023-01-09T15:17:45.468Z,48.60
2023-01-09T15:20:17.821Z,48.67
2023-01-09T15:22:49.221Z,48.50
2023-01-09T15:25:33.668Z,48.51
2023-01-09T15:28:20.764Z,48.66
2023-01-09T15:30:48.387Z,48.63
2023-01-09T15:33:16.893Z,48.69
2023-01-09T15:35:46.170Z,48.75
2023-01-09T15:38:13.854Z,48.69
2023-01-09T15:40:41.506Z,48.72
2023-01-09T15:43:08.102Z,48.69
2023-01-09T15:45:37.337Z,48.79
2023-01-09T15:48:21.594Z,48.85
2023-01-09T15:50:50.861Z,48.73
2023-01-09T15:53:18.924Z,48.76
2023-01-09T15:55:46.671Z,48.77
2023-01-09T15:58:26.779Z,48.63
2023-01-09T16:00:54.816Z,48.69
2023-01-09T16:03:23.083Z,48.69
2023-01-09T16:05:53.053Z,48.78
2023-01-09T16:08:30.472Z,48.66
2023-01-09T16:10:59.003Z,48.70
2023-01-09T16:13:26.806Z,48.69
2023-01-09T16:15:54.420Z,48.81
2023-01-09T16:18:23.044Z,48.68
2023-01-09T16:20:51.276Z,48.60
2023-01-09T16:23:22.496Z,48.63
2023-01-09T16:25:50.134Z,48.56
2023-01-09T16:30:52.143Z,48.58
2023-01-09T16:33:20.918Z,48.61
2023-01-09T16:35:48.484Z,48.64
2023-01-09T16:38:16.161Z,48.69
2023-01-09T16:41:14.176Z,48.64
2023-01-09T16:43:40.779Z,48.65
2023-01-09T16:46:08.464Z,48.60
2023-01-09T16:48:36.117Z,48.59
2023-01-09T16:51:03.700Z,48.57
2023-01-09T16:53:31.916Z,48.59
2023-01-09T16:56:00.834Z,48.59
2023-01-09T16:58:30.050Z,48.64
2023-01-09T17:00:57.728Z,48.63
2023-01-09T17:03:25.535Z,48.65
2023-01-09T17:05:53.460Z,48.80
2023-01-09T17:08:21.645Z,48.75
2023-01-09T17:10:49.287Z,48.73
2023-01-09T17:13:18.360Z,48.59
2023-01-09T17:15:45.987Z,48.74
2023-01-09T17:18:15.103Z,48.55
2023-01-09T17:20:42.983Z,48.41
2023-01-09T17:23:10.640Z,48.66
2023-01-09T17:25:55.564Z,48.59
2023-01-09T17:28:33.281Z,48.53
2023-01-09T17:31:01.397Z,48.65
2023-01-09T17:33:29.103Z,48.63
2023-01-09T17:35:56.790Z,48.44
2023-01-09T17:38:24.484Z,48.62
2023-01-09T17:40:52.366Z,48.58
2023-01-09T17:43:19.961Z,48.52
2023-01-09T17:45:49.029Z,48.44
2023-01-09T17:48:17.247Z,48.38
2023-01-09T17:50:44.923Z,48.38
2023-01-09T17:53:12.593Z,48.51
2023-01-09T17:55:40.390Z,48.56
2023-01-09T17:58:08.008Z,48.54
2023-01-09T18:00:36.839Z,48.55
2023-01-09T18:03:07.525Z,48.50
2023-01-09T18:05:36.968Z,48.46
2023-01-09T18:08:05.802Z,48.51
2023-01-09T18:10:33.619Z,48.41
2023-01-09T18:13:01.257Z,48.41
2023-01-09T18:15:28.839Z,48.50
2023-01-09T18:17:56.463Z,48.65
2023-01-09T18:20:26.081Z,48.53
2023-01-09T18:22:53.707Z,48.57
2023-01-09T18:25:21.345Z,48.67
2023-01-09T18:27:48.949Z,48.75
2023-01-09T18:30:16.595Z,48.58
2023-01-09T18:32:44.177Z,48.68
2023-01-09T18:35:11.814Z,48.68
2023-01-09T18:37:40.831Z,48.72
2023-01-09T18:40:08.876Z,48.74
2023-01-09T18:42:36.497Z,48.68
2023-01-09T18:45:04.251Z,48.63
2023-01-09T18:47:31.823Z,48.60
2023-01-09T18:49:59.923Z,48.50
2023-01-09T18:52:27.940Z,48.49
2023-01-09T18:54:56.888Z,48.52
2023-01-09T18:57:24.541Z,48.50
2023-01-09T18:59:52.195Z,48.49
2023-01-09T19:02:20.189Z,48.51
2023-01-09T19:04:47.846Z,48.43
2023-01-09T19:07:15.537Z,48.33
2023-01-09T19:09:43.218Z,48.35
2023-01-09T19:12:12.240Z,48.30
2023-01-09T19:14:39.860Z,48.33
2023-01-09T19:17:07.549Z,48.42
2023-01-09T19:19:35.829Z,48.34
2023-01-09T19:22:03.967Z,48.35
2023-01-09T19:24:32.971Z,48.41
2023-01-09T19:27:00.602Z,48.33
2023-01-09T19:29:31.884Z,48.44
2023-01-09T19:31:59.473Z,48.51
2023-01-09T19:34:27.326Z,48.65
2023-01-09T19:36:54.919Z,48.48
2023-01-09T19:39:22.678Z,48.55
2023-01-09T19:41:50.269Z,48.52
2023-01-09T19:44:18.980Z,48.66
2023-01-09T19:46:47.935Z,48.37
2023-01-09T19:49:15.637Z,48.30
2023-01-09T19:51:43.507Z,48.45
2023-01-09T19:54:11.314Z,48.38
2023-01-09T19:56:40.730Z,48.47
2023-01-09T19:59:08.425Z,48.46
2023-01-09T20:01:36.700Z,48.42
2023-01-09T20:04:07.864Z,48.53
2023-01-09T20:06:35.608Z,48.54
2023-01-09T20:09:04.036Z,48.57
2023-01-09T20:11:32.052Z,48.53
2023-01-09T20:13:59.719Z,48.50
2023-01-09T20:16:28.199Z,48.57
2023-01-09T20:18:57.749Z,48.57
2023-01-09T20:21:28.960Z,48.48
2023-01-09T20:23:57.094Z,48.55
2023-01-09T20:26:26.197Z,48.43
2023-01-09T20:28:53.977Z,48.56
2023-01-09T20:31:21.965Z,48.54
2023-01-09T20:33:50.749Z,48.54
2023-01-09T20:36:19.474Z,48.53
2023-01-09T20:38:48.440Z,48.39
2023-01-09T20:41:22.745Z,48.67
2023-01-09T20:43:50.524Z,48.45
2023-01-09T20:46:18.159Z,48.58
2023-01-09T20:48:45.800Z,48.54
2023-01-09T20:51:13.597Z,48.40
2023-01-09T20:53:44.405Z,48.52
2023-01-09T20:56:13.438Z,48.50
2023-01-09T20:58:42.238Z,48.51
2023-01-09T21:01:10.364Z,48.53
2023-01-09T21:03:38.364Z,48.52
2023-01-09T21:06:06.889Z,48.54
2023-01-09T21:08:34.565Z,48.37
2023-01-09T21:11:02.189Z,48.60
2023-01-09T21:13:31.347Z,48.54
2023-01-09T21:16:01.364Z,48.33
2023-01-09T21:18:29.178Z,48.50
2023-01-09T21:20:56.781Z,48.43
2023-01-09T21:23:24.409Z,48.44
2023-01-09T21:25:52.053Z,48.43
2023-01-09T21:28:20.280Z,48.40
2023-01-09T21:30:49.792Z,48.50
2023-01-09T21:33:20.703Z,48.33
2023-01-09T21:35:52.527Z,48.62
2023-01-09T21:38:20.213Z,48.57
2023-01-09T21:40:49.091Z,48.42
2023-01-09T21:43:36.998Z,48.38
2023-01-09T21:46:23.799Z,48.49
2023-01-09T21:48:51.499Z,48.53
2023-01-09T21:51:19.487Z,48.45
2023-01-09T21:53:47.057Z,48.42
2023-01-09T21:56:14.637Z,48.18
2023-01-09T21:58:44.455Z,48.40
2023-01-09T22:01:13.465Z,48.23
2023-01-09T22:03:41.067Z,48.31
2023-01-09T22:06:08.881Z,48.52
2023-01-09T22:08:36.552Z,48.46
2023-01-09T22:11:04.670Z,48.41
2023-01-09T22:13:32.299Z,48.38
2023-01-09T22:16:03.783Z,48.35
2023-01-09T22:18:33.452Z,48.47
2023-01-09T22:21:01.031Z,48.35
2023-01-09T22:23:28.687Z,48.52
2023-01-09T22:25:56.337Z,48.43
2023-01-09T22:28:24.004Z,48.45
2023-01-09T22:30:51.658Z,48.40
2023-01-09T22:33:19.276Z,48.45
2023-01-09T22:35:48.372Z,48.38
2023-01-09T22:38:15.975Z,48.32
2023-01-09T22:40:43.619Z,48.49
2023-01-09T22:43:14.247Z,48.32
2023-01-09T22:45:41.849Z,48.29
2023-01-09T22:48:09.949Z,48.20
2023-01-09T22:50:37.606Z,48.42
2023-01-09T22:53:06.671Z,48.24
2023-01-09T22:55:34.279Z,48.24
2023-01-09T22:58:02.071Z,48.17
2023-01-09T23:00:29.907Z,48.21
2023-01-09T23:02:57.592Z,48.33
2023-01-09T23:05:25.322Z,48.33
2023-01-09T23:07:53.026Z,48.33
2023-01-09T23:10:22.074Z,48.34
2023-01-09T23:12:50.328Z,48.33
